createdAt,value
2018-09-03T00:00:26.179Z,18.00
2018-09-03T00:02:57.503Z,18.00
2018-09-03T00:05:28.475Z,17.90
2018-09-03T00:07:59.205Z,17.90
2018-09-03T00:10:29.814Z,18.00
2018-09-03T00:13:07.020Z,17.90
2018-09-03T00:15:38.085Z,17.90
2018-09-03T00:18:09.366Z,17.90
2018-09-03T00:20:39.974Z,17.90
2018-09-03T00:23:10.655Z,18.00
2018-09-03T00:25:42.103Z,18.00
2018-09-03T00:28:12.682Z,18.10
2018-09-03T00:30:43.261Z,18.10
2018-09-03T00:33:20.099Z,18.10
2018-09-03T00:35:56.349Z,18.10
2018-09-03T00:38:31.837Z,18.10
2018-09-03T00:41:14.274Z,18.10
2018-09-03T00:43:50.171Z,18.10
2018-09-03T00:46:25.858Z,18.10
2018-09-03T00:48:56.719Z,18.10
2018-09-03T00:51:27.761Z,18.00
2018-09-03T00:54:06.339Z,18.00
2018-09-03T00:56:36.832Z,18.00
2018-09-03T00:59:07.356Z,18.00
2018-09-03T01:01:37.881Z,18.00
2018-09-03T01:04:08.416Z,17.90
2018-09-03T01:06:38.900Z,17.90
2018-09-03T01:09:09.943Z,17.90
2018-09-03T01:11:40.538Z,18.00
2018-09-03T01:14:11.128Z,18.00
2018-09-03T01:16:45.783Z,18.00
2018-09-03T01:19:16.267Z,18.00
2018-09-03T01:21:46.827Z,18.10
2018-09-03T01:24:24.361Z,18.10
2018-09-03T01:26:54.901Z,18.20
2018-09-03T01:29:25.460Z,18.10
2018-09-03T01:31:57.200Z,18.10
2018-09-03T01:34:28.003Z,18.10
2018-09-03T01:36:58.505Z,18.10
2018-09-03T01:39:29.351Z,18.10
2018-09-03T01:41:59.858Z,18.00
2018-09-03T01:44:30.383Z,18.00
2018-09-03T01:47:01.042Z,17.90
2018-09-03T01:49:31.680Z,17.80
2018-09-03T01:52:02.393Z,17.90
2018-09-03T01:54:37.887Z,17.80
2018-09-03T01:57:08.358Z,17.80
2018-09-03T01:59:38.762Z,17.80
2018-09-03T02:02:09.255Z,17.70
2018-09-03T02:04:39.750Z,17.80
2018-09-03T02:07:11.371Z,17.80
2018-09-03T02:09:44.641Z,17.90
2018-09-03T02:12:15.202Z,17.90
2018-09-03T02:14:49.030Z,17.90
2018-09-03T02:17:19.646Z,17.90
2018-09-03T02:19:50.199Z,17.90
2018-09-03T02:22:20.687Z,17.90
2018-09-03T02:24:51.132Z,17.90
2018-09-03T02:27:22.615Z,17.90
2018-09-03T02:29:53.086Z,17.90
2018-09-03T02:32:23.488Z,17.90
2018-09-03T02:34:53.995Z,18.00
2018-09-03T02:37:25.049Z,17.90
2018-09-03T02:39:55.746Z,18.00
2018-09-03T02:42:26.467Z,18.00
2018-09-03T02:44:56.991Z,18.00
2018-09-03T02:47:27.422Z,18.00
2018-09-03T02:49:58.618Z,18.00
2018-09-03T02:52:30.100Z,18.00
2018-09-03T02:55:00.956Z,17.90
2018-09-03T02:57:31.728Z,17.90
2018-09-03T03:00:02.751Z,17.90
2018-09-03T03:02:33.338Z,17.90
2018-09-03T03:05:04.126Z,17.90
2018-09-03T03:07:34.722Z,17.90
2018-09-03T03:10:05.289Z,18.00
2018-09-03T03:12:35.774Z,18.00
2018-09-03T03:15:06.563Z,18.00
2018-09-03T03:17:37.461Z,18.00
2018-09-03T03:20:08.030Z,18.00
2018-09-03T03:22:38.491Z,17.90
2018-09-03T03:25:09.054Z,17.80
2018-09-03T03:27:39.552Z,17.70
2018-09-03T03:30:11.428Z,17.80
2018-09-03T03:32:45.064Z,17.80
2018-09-03T03:35:15.770Z,17.80
2018-09-03T03:37:47.090Z,17.80
2018-09-03T03:40:19.357Z,17.80
2018-09-03T03:42:49.806Z,17.80
2018-09-03T03:45:20.389Z,17.80
2018-09-03T03:47:51.134Z,17.70
2018-09-03T03:50:21.613Z,17.70
2018-09-03T03:52:52.231Z,17.70
2018-09-03T03:55:22.968Z,17.70
2018-09-03T03:57:53.588Z,17.70
2018-09-03T04:00:24.218Z,17.60
2018-09-03T04:02:54.766Z,17.60
2018-09-03T04:05:25.769Z,17.60
2018-09-03T04:08:01.312Z,17.60
2018-09-03T04:10:31.764Z,17.70
2018-09-03T04:13:06.123Z,17.70
2018-09-03T04:15:38.126Z,17.70
2018-09-03T04:18:09.110Z,17.60
2018-09-03T04:20:39.805Z,17.70
2018-09-03T04:23:10.805Z,17.60
2018-09-03T04:25:41.146Z,17.60
2018-09-03T04:28:12.116Z,17.60
2018-09-03T04:30:43.506Z,17.70
2018-09-03T04:33:13.983Z,17.60
2018-09-03T04:35:45.396Z,17.60
2018-09-03T04:38:15.868Z,17.60
2018-09-03T04:40:46.330Z,17.60
2018-09-03T04:43:16.866Z,17.60
2018-09-03T04:45:47.386Z,17.60
2018-09-03T04:48:17.940Z,17.60
2018-09-03T04:50:48.450Z,17.60
2018-09-03T04:53:18.876Z,17.70
2018-09-03T04:55:49.299Z,17.70
2018-09-03T04:58:20.309Z,17.70
2018-09-03T05:00:50.835Z,17.80
2018-09-03T05:03:21.295Z,17.70
2018-09-03T05:05:51.789Z,17.70
2018-09-03T05:08:22.109Z,17.80
2018-09-03T05:10:52.588Z,17.70
2018-09-03T05:13:22.966Z,17.80
2018-09-03T05:15:54.247Z,17.70
2018-09-03T05:18:25.023Z,17.70
2018-09-03T05:20:55.602Z,17.80
2018-09-03T05:23:26.386Z,17.80
2018-09-03T05:25:56.900Z,17.80
2018-09-03T05:28:27.536Z,17.90
2018-09-03T05:30:58.350Z,17.80
2018-09-03T05:33:28.804Z,17.90
2018-09-03T05:35:59.228Z,17.90
2018-09-03T05:38:29.659Z,18.00
2018-09-03T05:41:02.369Z,18.00
2018-09-03T05:43:33.046Z,18.00
2018-09-03T05:46:03.725Z,18.00
2018-09-03T05:48:34.058Z,18.00
2018-09-03T05:51:04.548Z,18.00
2018-09-03T05:53:34.873Z,18.00
2018-09-03T05:56:05.250Z,18.10
2018-09-03T05:58:35.573Z,18.00
2018-09-03T06:01:06.032Z,18.10
2018-09-03T06:03:36.361Z,18.10
2018-09-03T06:06:06.741Z,18.20
2018-09-03T06:08:37.114Z,18.20
2018-09-03T06:11:08.123Z,18.30
2018-09-03T06:13:38.422Z,18.30
2018-09-03T06:16:09.354Z,18.40
2018-09-03T06:18:39.638Z,18.40
2018-09-03T06:21:10.357Z,18.40
2018-09-03T06:23:40.653Z,18.40
2018-09-03T06:26:11.374Z,18.30
2018-09-03T06:28:41.728Z,18.40
2018-09-03T06:31:12.181Z,18.40
2018-09-03T06:33:42.502Z,18.50
2018-09-03T06:36:12.838Z,18.40
2018-09-03T06:38:43.343Z,18.40
2018-09-03T06:41:13.974Z,18.40
2018-09-03T06:43:44.270Z,18.40
2018-09-03T06:46:14.630Z,18.40
2018-09-03T06:48:44.958Z,18.50
2018-09-03T06:51:15.314Z,18.50
2018-09-03T06:53:46.077Z,18.60
2018-09-03T06:56:16.458Z,18.70
2018-09-03T06:58:46.760Z,18.70
2018-09-03T07:01:17.121Z,18.80
2018-09-03T07:03:47.430Z,18.80
2018-09-03T07:06:17.788Z,18.90
2018-09-03T07:08:48.197Z,19.00
2018-09-03T07:11:18.751Z,19.00
2018-09-03T07:13:49.086Z,19.00
2018-09-03T07:16:19.480Z,19.00
2018-09-03T07:18:49.881Z,19.00
2018-09-03T07:21:20.195Z,19.10
2018-09-03T07:23:50.502Z,19.20
2018-09-03T07:26:20.908Z,19.30
2018-09-03T07:28:51.209Z,19.30
2018-09-03T07:31:21.786Z,19.20
2018-09-03T07:33:52.317Z,19.30
2018-09-03T07:36:22.819Z,19.30
2018-09-03T07:38:53.185Z,19.20
2018-09-03T07:41:23.540Z,19.10
2018-09-03T07:43:54.182Z,19.00
2018-09-03T07:46:24.479Z,19.00
2018-09-03T07:48:55.274Z,19.10
2018-09-03T07:51:25.627Z,19.20
2018-09-03T07:53:55.922Z,19.30
2018-09-03T07:56:26.189Z,19.40
2018-09-03T07:58:56.415Z,19.50
2018-09-03T08:01:26.697Z,19.70
2018-09-03T08:03:57.084Z,19.70
2018-09-03T08:06:27.375Z,19.80
2018-09-03T08:08:57.931Z,19.80
2018-09-03T08:11:28.188Z,19.70
2018-09-03T08:13:58.614Z,19.70
2018-09-03T08:16:28.958Z,19.70
2018-09-03T08:18:59.237Z,19.70
2018-09-03T08:21:29.530Z,19.60
2018-09-03T08:23:59.959Z,19.60
2018-09-03T08:26:30.297Z,19.60
2018-09-03T08:29:00.622Z,19.50
2018-09-03T08:31:31.028Z,19.50
2018-09-03T08:34:01.279Z,19.40
2018-09-03T08:36:31.678Z,19.40
2018-09-03T08:39:02.000Z,19.40
2018-09-03T08:41:32.553Z,19.30
2018-09-03T08:44:02.975Z,19.30
2018-09-03T08:46:33.342Z,19.20
2018-09-03T08:49:03.654Z,19.20
2018-09-03T08:51:34.063Z,19.20
2018-09-03T08:54:04.414Z,19.20
2018-09-03T08:56:34.833Z,19.20
2018-09-03T08:59:05.310Z,19.20
2018-09-03T09:01:35.671Z,19.20
2018-09-03T09:04:06.181Z,19.00
2018-09-03T09:06:36.612Z,19.00
2018-09-03T09:09:08.565Z,19.10
2018-09-03T09:11:40.080Z,19.20
2018-09-03T09:14:10.429Z,19.20
2018-09-03T09:16:40.921Z,19.30
2018-09-03T09:19:11.303Z,19.40
2018-09-03T09:21:41.697Z,19.60
2018-09-03T09:24:12.264Z,19.80
2018-09-03T09:26:42.610Z,20.00
2018-09-03T09:29:12.903Z,20.10
2018-09-03T09:31:43.263Z,20.20
2018-09-03T09:34:13.627Z,20.20
2018-09-03T09:36:44.062Z,20.20
2018-09-03T09:39:14.844Z,20.20
2018-09-03T09:41:45.289Z,20.10
2018-09-03T09:44:15.648Z,20.10
2018-09-03T09:46:46.127Z,20.20
2018-09-03T09:49:16.591Z,20.30
2018-09-03T09:51:46.927Z,20.20
2018-09-03T09:54:17.321Z,20.30
2018-09-03T09:56:47.632Z,20.40
2018-09-03T09:59:17.979Z,20.50
2018-09-03T10:01:48.327Z,20.50
2018-09-03T10:04:18.672Z,20.60
2018-09-03T10:06:49.039Z,20.80
2018-09-03T10:09:19.359Z,20.70
2018-09-03T10:11:49.650Z,20.70
2018-09-03T10:14:20.014Z,20.70
2018-09-03T10:16:50.310Z,20.70
2018-09-03T10:19:20.659Z,20.70
2018-09-03T10:21:50.994Z,20.70
2018-09-03T10:24:21.957Z,20.80
2018-09-03T10:26:52.696Z,20.90
2018-09-03T10:29:23.098Z,20.90
2018-09-03T10:31:56.636Z,21.00
2018-09-03T10:34:29.164Z,20.90
2018-09-03T10:37:01.575Z,20.90
2018-09-03T10:39:33.479Z,21.10
2018-09-03T10:42:06.406Z,21.10
2018-09-03T10:44:39.002Z,21.30
2018-09-03T10:47:12.503Z,21.30
2018-09-03T10:49:46.096Z,21.40
2018-09-03T10:52:20.971Z,21.50
2018-09-03T10:54:57.715Z,21.80
2018-09-03T10:57:30.037Z,22.10
2018-09-03T11:00:02.307Z,22.30
2018-09-03T11:02:34.606Z,22.40
2018-09-03T11:05:06.306Z,22.40
2018-09-03T11:07:39.064Z,22.50
2018-09-03T11:10:11.768Z,22.50
2018-09-03T11:12:49.582Z,22.70
2018-09-03T11:15:30.326Z,22.80
2018-09-03T11:18:03.262Z,22.80
2018-09-03T11:20:34.402Z,22.80
2018-09-03T11:23:05.957Z,22.80
2018-09-03T11:25:38.602Z,22.90
2018-09-03T11:28:12.144Z,22.90
2018-09-03T11:30:44.825Z,23.00
2018-09-03T11:33:16.755Z,23.10
2018-09-03T11:35:49.007Z,23.10
2018-09-03T11:38:21.043Z,23.20
2018-09-03T11:40:53.838Z,23.20
2018-09-03T11:43:25.378Z,23.30
2018-09-03T11:46:01.459Z,23.20
2018-09-03T11:48:33.919Z,23.20
2018-09-03T11:51:09.771Z,23.10
2018-09-03T11:53:43.360Z,23.10
2018-09-03T11:56:15.504Z,23.20
2018-09-03T11:58:47.357Z,23.20
2018-09-03T12:01:18.490Z,23.30
2018-09-03T12:03:49.063Z,23.20
2018-09-03T12:06:20.180Z,23.30
2018-09-03T12:09:01.612Z,23.50
2018-09-03T12:11:34.229Z,23.70
2018-09-03T12:14:16.965Z,23.90
2018-09-03T12:17:06.980Z,24.10
2018-09-03T12:19:41.524Z,23.90
2018-09-03T12:22:15.459Z,23.80
2018-09-03T12:24:50.710Z,23.90
2018-09-03T12:27:22.613Z,24.00
2018-09-03T12:30:06.960Z,24.10
2018-09-03T12:32:54.477Z,24.20
2018-09-03T12:35:36.080Z,24.30
2018-09-03T12:41:10.591Z,24.30
2018-09-03T12:43:52.161Z,24.60
2018-09-03T12:46:27.782Z,24.60
2018-09-03T12:49:02.476Z,25.00
2018-09-03T12:51:35.159Z,25.80
2018-09-03T12:54:07.117Z,27.00
2018-09-03T12:56:37.974Z,28.10
2018-09-03T12:59:09.488Z,29.20
2018-09-03T13:01:40.979Z,30.20
2018-09-03T13:04:13.721Z,29.90
2018-09-03T13:06:44.746Z,29.00
2018-09-03T13:09:15.161Z,28.10
2018-09-03T13:11:45.561Z,27.20
2018-09-03T13:14:15.958Z,26.60
2018-09-03T13:16:46.406Z,26.00
2018-09-03T13:19:17.025Z,25.70
2018-09-03T13:21:47.359Z,25.50
2018-09-03T13:24:17.690Z,25.50
2018-09-03T13:26:48.185Z,25.80
2018-09-03T13:29:18.580Z,26.10
2018-09-03T13:31:48.967Z,26.60
2018-09-03T13:34:19.679Z,27.30
2018-09-03T13:36:50.206Z,27.60
2018-09-03T13:39:20.670Z,27.70
2018-09-03T13:41:51.012Z,28.10
2018-09-03T13:44:21.394Z,28.90
2018-09-03T13:46:51.753Z,29.20
2018-09-03T13:49:22.068Z,28.90
2018-09-03T13:51:52.476Z,28.30
2018-09-03T13:54:23.077Z,27.60
2018-09-03T13:56:53.328Z,27.00
2018-09-03T13:59:25.246Z,26.50
2018-09-03T14:01:58.561Z,25.90
2018-09-03T14:04:28.887Z,25.60
2018-09-03T14:06:59.148Z,25.30
2018-09-03T14:09:29.541Z,25.20
2018-09-03T14:11:59.891Z,25.70
2018-09-03T14:14:34.489Z,26.20
2018-09-03T14:17:04.779Z,26.60
2018-09-03T14:19:35.215Z,27.00
2018-09-03T14:22:05.511Z,27.20
2018-09-03T14:24:35.819Z,27.40
2018-09-03T14:27:09.149Z,27.50
2018-09-03T14:29:41.035Z,28.30
2018-09-03T14:32:11.393Z,29.20
2018-09-03T14:34:46.193Z,30.20
2018-09-03T14:37:16.651Z,31.10
2018-09-03T14:39:47.036Z,31.70
2018-09-03T14:42:20.604Z,31.60
2018-09-03T14:44:51.661Z,31.30
2018-09-03T14:47:22.968Z,31.20
2018-09-03T14:49:54.447Z,30.80
2018-09-03T14:52:24.803Z,30.40
2018-09-03T14:54:55.437Z,30.00
2018-09-03T14:57:26.502Z,29.90
2018-09-03T14:59:58.057Z,30.10
2018-09-03T15:02:28.572Z,30.00
2018-09-03T15:04:59.236Z,29.50
2018-09-03T15:07:30.312Z,29.20
2018-09-03T15:10:01.742Z,28.70
2018-09-03T15:12:43.957Z,28.30
2018-09-03T15:15:15.036Z,28.20
2018-09-03T15:17:45.379Z,28.10
2018-09-03T15:20:15.695Z,28.20
2018-09-03T15:22:48.579Z,28.20
2018-09-03T15:25:20.067Z,28.30
2018-09-03T15:27:50.472Z,28.50
2018-09-03T15:30:20.973Z,28.30
2018-09-03T15:32:51.347Z,28.50
2018-09-03T15:35:21.999Z,28.70
2018-09-03T15:37:53.170Z,28.70
2018-09-03T15:40:32.628Z,28.20
2018-09-03T15:43:03.190Z,27.80
2018-09-03T15:45:33.477Z,27.20
2018-09-03T15:48:03.926Z,26.70
2018-09-03T15:50:34.258Z,26.20
2018-09-03T15:53:04.641Z,25.70
2018-09-03T15:55:35.011Z,25.00
2018-09-03T15:58:06.458Z,24.50
2018-09-03T16:00:37.025Z,23.90
2018-09-03T16:03:07.507Z,23.70
2018-09-03T16:05:37.801Z,23.30
2018-09-03T16:08:08.166Z,23.10
2018-09-03T16:10:38.534Z,22.70
2018-09-03T16:14:11.794Z,22.30
2018-09-03T16:16:42.203Z,22.20
2018-09-03T16:19:12.949Z,22.10
2018-09-03T16:21:43.414Z,22.00
2018-09-03T16:24:14.084Z,22.00
2018-09-03T16:26:44.454Z,22.00
2018-09-03T16:29:14.935Z,22.10
2018-09-03T16:31:45.390Z,22.10
2018-09-03T16:34:15.866Z,22.10
2018-09-03T16:36:46.281Z,22.10
2018-09-03T16:39:16.760Z,22.10
2018-09-03T16:41:47.748Z,22.10
2018-09-03T16:44:18.129Z,22.10
2018-09-03T16:46:48.466Z,22.00
2018-09-03T16:49:18.802Z,22.00
2018-09-03T16:51:50.500Z,21.80
2018-09-03T16:54:21.260Z,21.80
2018-09-03T16:56:52.464Z,21.60
2018-09-03T16:59:23.352Z,21.50
2018-09-03T17:01:55.194Z,21.40
2018-09-03T17:04:37.888Z,21.20
2018-09-03T17:07:11.313Z,21.10
2018-09-03T17:09:57.529Z,21.00
2018-09-03T17:12:47.768Z,21.00
2018-09-03T17:15:19.740Z,21.00
2018-09-03T17:17:51.508Z,21.00
2018-09-03T17:20:22.329Z,21.00
2018-09-03T17:22:54.207Z,21.00
2018-09-03T17:25:27.173Z,20.80
2018-09-03T17:27:59.924Z,20.80
2018-09-03T17:30:31.974Z,20.60
2018-09-03T17:33:05.806Z,20.60
2018-09-03T17:35:37.147Z,20.60
2018-09-03T17:38:08.744Z,20.60
2018-09-03T17:40:40.996Z,20.70
2018-09-03T17:43:13.634Z,20.60
2018-09-03T17:45:56.257Z,20.60
2018-09-03T17:48:35.821Z,20.60
2018-09-03T17:51:10.210Z,20.50
2018-09-03T17:53:41.319Z,20.50
2018-09-03T17:56:26.497Z,20.40
2018-09-03T17:59:04.772Z,20.30
2018-09-03T18:01:44.311Z,20.30
2018-09-03T18:04:21.368Z,20.20
2018-09-03T18:06:52.413Z,20.20
2018-09-03T18:09:24.058Z,20.20
2018-09-03T18:11:57.302Z,20.00
2018-09-03T18:14:31.163Z,19.80
2018-09-03T18:17:06.236Z,19.70
2018-09-03T18:19:37.327Z,19.70
2018-09-03T18:22:11.753Z,19.60
2018-09-03T18:24:44.007Z,19.50
2018-09-03T18:27:15.343Z,19.50
2018-09-03T18:29:47.217Z,19.50
2018-09-03T18:32:25.747Z,19.50
2018-09-03T18:38:25.151Z,19.50
2018-09-03T18:40:58.197Z,19.40
2018-09-03T18:43:29.784Z,19.40
2018-09-03T18:46:00.755Z,19.40
2018-09-03T18:48:31.998Z,19.30
2018-09-03T18:51:02.506Z,19.30
2018-09-03T18:53:32.958Z,19.20
2018-09-03T18:56:16.561Z,19.20
2018-09-03T18:58:48.470Z,19.10
2018-09-03T19:01:19.587Z,19.00
2018-09-03T19:03:50.106Z,18.90
2018-09-03T19:06:29.728Z,18.90
2018-09-03T19:09:00.437Z,18.90
2018-09-03T19:11:35.089Z,18.80
2018-09-03T19:14:06.595Z,18.70
2018-09-03T19:16:41.961Z,18.80
2018-09-03T19:19:14.712Z,18.80
2018-09-03T19:21:45.323Z,18.70
2018-09-03T19:24:15.661Z,18.60
2018-09-03T19:26:46.074Z,18.50
2018-09-03T19:29:16.547Z,18.50
2018-09-03T19:31:46.871Z,18.50
2018-09-03T19:34:17.308Z,18.50
2018-09-03T19:36:47.682Z,18.50
2018-09-03T19:39:18.132Z,18.40
2018-09-03T19:41:48.469Z,18.40
2018-09-03T19:44:18.858Z,18.30
2018-09-03T19:46:55.288Z,18.20
2018-09-03T19:49:25.741Z,18.00
2018-09-03T19:51:56.499Z,17.90
2018-09-03T19:54:27.306Z,18.00
2018-09-03T19:56:58.204Z,17.90
2018-09-03T19:59:29.262Z,17.90
2018-09-03T20:02:05.733Z,17.90
2018-09-03T20:04:39.394Z,17.90
2018-09-03T20:07:11.042Z,18.00
2018-09-03T20:09:45.723Z,18.10
2018-09-03T20:12:17.561Z,18.10
2018-09-03T20:14:49.857Z,18.20
2018-09-03T20:17:22.578Z,18.20
2018-09-03T20:19:55.887Z,18.20
2018-09-03T20:22:28.525Z,18.20
2018-09-03T20:25:01.557Z,18.20
2018-09-03T20:27:35.068Z,18.20
2018-09-03T20:30:06.740Z,18.20
2018-09-03T20:32:37.209Z,18.20
2018-09-03T20:35:08.178Z,18.00
2018-09-03T20:37:38.498Z,18.00
2018-09-03T20:40:12.835Z,17.90
2018-09-03T20:42:45.707Z,17.90
2018-09-03T20:45:17.066Z,17.90
2018-09-03T20:47:47.770Z,18.00
2018-09-03T20:50:19.579Z,17.80
2018-09-03T20:52:50.109Z,17.80
2018-09-03T20:55:21.860Z,17.70
2018-09-03T20:57:53.186Z,17.70
2018-09-03T21:00:25.235Z,17.60
2018-09-03T21:02:55.965Z,17.50
2018-09-03T21:05:26.384Z,17.40
2018-09-03T21:07:58.479Z,17.30
2018-09-03T21:10:29.174Z,17.20
2018-09-03T21:13:02.046Z,17.20
2018-09-03T21:15:34.713Z,17.10
2018-09-03T21:18:38.397Z,17.10
2018-09-03T21:21:12.602Z,17.20
2018-09-03T21:23:45.060Z,17.30
2018-09-03T21:26:17.114Z,17.30
2018-09-03T21:28:48.902Z,17.30
2018-09-03T21:31:19.897Z,17.20
2018-09-03T21:33:51.260Z,17.10
2018-09-03T21:36:23.082Z,17.00
2018-09-03T21:38:55.016Z,16.90
2018-09-03T21:41:28.130Z,16.90
2018-09-03T21:43:59.443Z,16.90
2018-09-03T21:46:32.624Z,16.90
2018-09-03T21:49:03.804Z,16.90
2018-09-03T21:51:35.669Z,16.90
2018-09-03T21:54:09.538Z,16.90
2018-09-03T21:56:40.352Z,16.80
2018-09-03T21:59:11.518Z,16.80
2018-09-03T22:01:44.027Z,16.80
2018-09-03T22:04:14.609Z,16.80
2018-09-03T22:06:45.058Z,16.80
2018-09-03T22:09:15.676Z,16.80
2018-09-03T22:11:46.197Z,16.80
2018-09-03T22:14:16.958Z,16.80
2018-09-03T22:16:47.469Z,16.80
2018-09-03T22:19:18.065Z,16.80
2018-09-03T22:21:49.085Z,16.70
2018-09-03T22:24:20.733Z,16.60
2018-09-03T22:26:51.656Z,16.60
2018-09-03T22:29:23.124Z,16.50
2018-09-03T22:31:54.568Z,16.50
2018-09-03T22:34:25.398Z,16.50
2018-09-03T22:36:57.149Z,16.50
2018-09-03T22:39:27.959Z,16.50
2018-09-03T22:41:58.961Z,16.50
2018-09-03T22:44:29.298Z,16.50
2018-09-03T22:47:02.574Z,16.40
2018-09-03T22:49:32.895Z,16.50
2018-09-03T22:52:03.887Z,16.50
2018-09-03T22:54:36.960Z,16.40
2018-09-03T22:57:08.398Z,16.40
2018-09-03T23:01:14.644Z,16.40
2018-09-03T23:03:45.119Z,16.40
2018-09-03T23:06:16.883Z,16.20
2018-09-03T23:08:48.825Z,16.10
2018-09-03T23:11:22.008Z,16.10
2018-09-03T23:13:57.315Z,16.10
2018-09-03T23:16:28.509Z,16.10
2018-09-03T23:19:00.033Z,16.10
2018-09-03T23:21:32.106Z,16.00
2018-09-03T23:24:02.853Z,16.00
2018-09-03T23:26:33.654Z,16.00
2018-09-03T23:29:04.024Z,16.00
2018-09-03T23:31:34.652Z,16.00
2018-09-03T23:34:05.235Z,15.90
2018-09-03T23:36:35.660Z,15.90
2018-09-03T23:39:06.946Z,15.90
2018-09-03T23:41:37.744Z,15.80
2018-09-03T23:44:08.169Z,15.80
2018-09-03T23:46:38.511Z,15.80
2018-09-03T23:55:17.297Z,15.80
2018-09-03T23:57:51.283Z,15.80
